LEVX/VGO METAR and TAF weather

Enter ICAO airport designator
Station Type Date Time Source
LEVX METAR 2021/07/28 04:00 UTC NOAA

LEVX 280400Z 01005KT 340V050 CAVOK 16/13 Q1016 NOSIG


Station Type Date Time Source
LEVX Decoded METAR 2021/07/28 04:00 UTC NOAA

Vigo / Peinador, Spain (LEVX) 42-13N 008-38W 255M
Jul 28, 2021 - 12:00 AM EDT / 2021.07.28 0400 UTC
Wind: from the N (010 degrees) at 6 MPH (5 KT) (direction variable):0
Visibility: greater than 7 mile(s):0
Temperature: 60 F (16 C)
Dew Point: 55 F (13 C)
Relative Humidity: 82%
Pressure (altimeter): 30.00 in. Hg (1016 hPa)
ob: LEVX 280400Z 01005KT 340V050 CAVOK 16/13 Q1016 NOSIG
cycle: 4

Station Type Date Time Source
LEVX TAF 2021/07/27 18:27 UTC NOAA

TAF LEVX 271700Z 2718/2818 01008KT 9999 FEW030 TX26/2815Z TN13/2805Z PROB40
TEMPO 2718/2719 29010KT PROB30
TEMPO 2803/2807 3000 BR BKN010

Example: see airport list